Time;durP1;ratioP1;P1;durP2;ratioP2;P2;SDS_P1;SDS_P2;PMS_P1;PMS_P2;Temp;Humidity;BMP_temperature;BMP_pressure;BME280_temperature;BME280_humidity;BME280_pressure;Samples;Min_cycle;Max_cycle;Signal;HPM_P1;HPM_P2
2023/06/16 00:01:15;;;;;;;;;7.33;7.33;;;;;;;;5077387;28;44800;-82
2023/06/16 00:03:41;;;;;;;;;7.33;7.33;;;;;;;;5059932;28;47125;-84
2023/06/16 00:06:12;;;;;;;;;10.00;9.67;;;;;;;;5077854;28;44779;-84
2023/06/16 00:08:44;;;;;;;;;10.67;8.00;;;;;;;;5060468;28;44781;-84
2023/06/16 00:11:10;;;;;;;;;10.33;7.00;;;;;;;;5060955;28;46078;-83
2023/06/16 00:13:36;;;;;;;;;10.00;7.00;;;;;;;;5060839;28;45454;-83
2023/06/16 00:16:01;;;;;;;;;11.00;9.67;;;;;;;;5077889;28;45239;-83
2023/06/16 00:18:28;;;;;;;;;10.67;9.67;;;;;;;;5067559;28;44730;-83
2023/06/16 00:20:54;;;;;;;;;6.33;6.33;;;;;;;;5065991;28;45383;-82
2023/06/16 00:23:23;;;;;;;;;10.67;9.33;;;;;;;;5083993;28;45342;-82
2023/06/16 00:25:48;;;;;;;;;11.00;10.67;;;;;;;;5083968;28;45319;-81
2023/06/16 00:28:13;;;;;;;;;11.00;9.33;;;;;;;;5066710;28;45549;-81
2023/06/16 00:30:39;;;;;;;;;12.00;9.00;;;;;;;;5067718;28;45095;-82
2023/06/16 00:33:05;;;;;;;;;10.00;8.33;;;;;;;;5084034;28;45188;-84
2023/06/16 00:35:30;;;;;;;;;10.00;9.33;;;;;;;;5066984;28;45414;-82
2023/06/16 00:37:56;;;;;;;;;10.33;8.33;;;;;;;;5066882;28;45299;-81
2023/06/16 00:40:21;;;;;;;;;10.33;9.33;;;;;;;;5085233;28;44804;-81
2023/06/16 00:42:46;;;;;;;;;8.00;8.00;;;;;;;;5066951;28;46736;-83
2023/06/16 00:45:12;;;;;;;;;7.00;7.00;;;;;;;;5079494;28;44889;-82
2023/06/16 00:47:37;;;;;;;;;9.33;8.33;;;;;;;;5074659;28;44741;-83
2023/06/16 00:50:04;;;;;;;;;12.00;11.00;;;;;;;;5084295;28;44867;-81
2023/06/16 00:52:34;;;;;;;;;13.33;13.00;;;;;;;;5085031;28;46307;-82
2023/06/16 00:55:00;;;;;;;;;16.00;13.33;;;;;;;;5083689;28;44788;-83
2023/06/16 00:57:25;;;;;;;;;10.67;10.67;;;;;;;;5078174;28;44665;-81
2023/06/16 00:59:50;;;;;;;;;13.00;12.00;;;;;;;;5085798;28;45272;-82
2023/06/16 01:02:16;;;;;;;;;15.67;13.33;;;;;;;;5086520;28;45484;-84
2023/06/16 01:04:41;;;;;;;;;13.33;9.67;;;;;;;;5067387;28;44697;-82
2023/06/16 01:07:11;;;;;;;;;11.00;10.33;;;;;;;;5083034;28;45337;-82
2023/06/16 01:09:42;;;;;;;;;10.00;10.00;;;;;;;;5086098;28;45432;-83
2023/06/16 01:12:17;;;;;;;;;7.00;7.00;;;;;;;;5071834;28;46993;-84
2023/06/16 01:14:56;;;;;;;;;10.00;10.00;;;;;;;;5071218;28;44761;-82
2023/06/16 01:17:22;;;;;;;;;9.33;8.67;;;;;;;;5082754;28;45413;-81
2023/06/16 01:20:11;;;;;;;;;10.67;9.00;;;;;;;;5082576;28;45814;-84
2023/06/16 01:22:55;;;;;;;;;8.00;8.00;;;;;;;;5055288;28;45280;-83
2023/06/16 01:25:28;;;;;;;;;5.33;5.33;;;;;;;;5093220;28;45196;-83
2023/06/16 01:27:54;;;;;;;;;9.00;8.33;;;;;;;;5092611;28;44835;-84
2023/06/16 01:30:22;;;;;;;;;8.33;8.33;;;;;;;;5080959;28;46246;-83
2023/06/16 01:32:52;;;;;;;;;9.00;8.33;;;;;;;;5083073;28;45424;-82
2023/06/16 01:35:18;;;;;;;;;7.33;7.33;;;;;;;;5060312;28;44729;-81
2023/06/16 01:37:44;;;;;;;;;7.33;7.33;;;;;;;;5075162;28;45402;-82
2023/06/16 01:40:10;;;;;;;;;8.33;8.33;;;;;;;;5081416;28;45340;-83
2023/06/16 01:42:35;;;;;;;;;10.67;8.33;;;;;;;;5062742;28;46525;-82
2023/06/16 01:45:02;;;;;;;;;10.00;8.67;;;;;;;;5080835;28;44737;-85
2023/06/16 01:47:29;;;;;;;;;10.00;8.67;;;;;;;;5073229;28;44793;-84
2023/06/16 01:49:54;;;;;;;;;11.67;11.00;;;;;;;;5087488;28;45490;-85
2023/06/16 01:52:20;;;;;;;;;7.00;7.00;;;;;;;;5068098;28;47211;-83
2023/06/16 01:54:46;;;;;;;;;9.00;7.67;;;;;;;;5081911;28;44807;-83
2023/06/16 01:57:11;;;;;;;;;10.33;10.33;;;;;;;;5093719;28;45217;-85
2023/06/16 01:59:37;;;;;;;;;6.67;6.67;;;;;;;;5081008;28;44817;-84
2023/06/16 02:02:11;;;;;;;;;11.33;11.33;;;;;;;;5079413;28;45063;-81
2023/06/16 02:04:39;;;;;;;;;10.33;10.33;;;;;;;;5055807;28;45266;-81
2023/06/16 02:07:11;;;;;;;;;16.33;12.67;;;;;;;;5077700;28;44760;-83
2023/06/16 02:09:38;;;;;;;;;11.33;10.67;;;;;;;;5079000;28;44727;-81
2023/06/16 02:12:05;;;;;;;;;13.33;13.33;;;;;;;;5068202;28;46851;-84
2023/06/16 02:14:31;;;;;;;;;11.00;10.67;;;;;;;;5082760;28;44642;-82
2023/06/16 02:16:56;;;;;;;;;14.33;11.33;;;;;;;;5072344;28;44817;-82
2023/06/16 02:19:21;;;;;;;;;15.33;15.33;;;;;;;;5078143;28;44718;-81
2023/06/16 02:21:47;;;;;;;;;16.33;16.33;;;;;;;;5078507;28;45307;-81
2023/06/16 02:24:12;;;;;;;;;19.33;16.33;;;;;;;;5079270;28;44732;-83
2023/06/16 02:26:38;;;;;;;;;19.00;16.67;;;;;;;;5079243;28;44709;-81
2023/06/16 02:29:03;;;;;;;;;16.33;16.33;;;;;;;;5065421;28;44801;-83
2023/06/16 02:31:29;;;;;;;;;16.00;14.00;;;;;;;;5078160;28;46451;-82
2023/06/16 02:33:54;;;;;;;;;22.00;18.33;;;;;;;;5079680;28;45332;-82
2023/06/16 02:36:21;;;;;;;;;19.33;18.00;;;;;;;;5080407;28;44765;-83
2023/06/16 02:38:46;;;;;;;;;25.67;19.33;;;;;;;;5062284;28;44768;-82
2023/06/16 02:41:12;;;;;;;;;22.00;19.33;;;;;;;;5078888;28;45438;-84
2023/06/16 02:43:37;;;;;;;;;22.33;20.00;;;;;;;;5062065;28;45397;-83
2023/06/16 02:46:03;;;;;;;;;20.00;18.00;;;;;;;;5079990;28;45060;-84
2023/06/16 02:48:28;;;;;;;;;19.00;17.67;;;;;;;;5062387;28;44800;-83
2023/06/16 02:50:53;;;;;;;;;18.00;18.00;;;;;;;;5080664;27;45617;-82
2023/06/16 02:53:20;;;;;;;;;17.67;16.67;;;;;;;;5080040;28;44728;-85
2023/06/16 02:55:48;;;;;;;;;19.00;18.33;;;;;;;;5051138;28;45579;-82
2023/06/16 02:58:14;;;;;;;;;16.67;16.33;;;;;;;;5062054;28;45094;-83
2023/06/16 03:00:39;;;;;;;;;18.00;17.00;;;;;;;;5062576;28;46698;-84
2023/06/16 03:03:07;;;;;;;;;17.33;17.33;;;;;;;;5080216;28;44745;-85
2023/06/16 03:05:34;;;;;;;;;18.33;16.33;;;;;;;;5066517;28;45667;-82
2023/06/16 03:07:59;;;;;;;;;22.33;20.00;;;;;;;;5067026;28;45242;-83
2023/06/16 03:10:24;;;;;;;;;14.00;14.00;;;;;;;;5080115;28;45431;-84
2023/06/16 03:12:50;;;;;;;;;11.67;11.67;;;;;;;;5079393;28;45386;-84
2023/06/16 03:15:15;;;;;;;;;15.00;12.33;;;;;;;;5078554;28;44867;-81
2023/06/16 03:17:40;;;;;;;;;18.33;17.00;;;;;;;;5060458;28;46001;-84
2023/06/16 03:20:07;;;;;;;;;16.67;15.67;;;;;;;;5061881;28;45755;-83
2023/06/16 03:22:33;;;;;;;;;15.33;13.33;;;;;;;;5062034;28;45378;-82
2023/06/16 03:25:02;;;;;;;;;16.67;16.67;;;;;;;;5057805;28;44707;-83
2023/06/16 03:27:30;;;;;;;;;18.33;17.67;;;;;;;;5061350;28;46133;-83
2023/06/16 03:29:56;;;;;;;;;18.33;14.00;;;;;;;;5063883;28;46384;-77
2023/06/16 03:32:21;;;;;;;;;15.67;15.67;;;;;;;;5053618;28;45427;-79
2023/06/16 03:34:48;;;;;;;;;18.00;14.67;;;;;;;;5053617;28;45774;-78
2023/06/16 03:37:13;;;;;;;;;18.00;16.00;;;;;;;;5053876;28;44816;-78
2023/06/16 03:39:39;;;;;;;;;17.33;15.67;;;;;;;;5071869;28;45289;-77
2023/06/16 03:42:04;;;;;;;;;17.33;16.67;;;;;;;;5054633;28;44785;-78
2023/06/16 03:44:29;;;;;;;;;13.67;12.67;;;;;;;;5073960;28;45384;-77
2023/06/16 03:46:55;;;;;;;;;16.67;14.67;;;;;;;;5083229;28;45269;-77
2023/06/16 03:49:20;;;;;;;;;18.67;17.00;;;;;;;;5056832;28;47056;-78
2023/06/16 03:51:46;;;;;;;;;16.67;15.00;;;;;;;;5053253;28;45425;-78
2023/06/16 03:54:14;;;;;;;;;18.00;14.67;;;;;;;;5065901;28;44946;-77
2023/06/16 03:56:39;;;;;;;;;16.00;14.00;;;;;;;;5054293;28;46130;-78
2023/06/16 03:59:05;;;;;;;;;14.33;14.33;;;;;;;;5072275;28;45217;-78
2023/06/16 04:01:31;;;;;;;;;17.67;17.67;;;;;;;;5071936;28;45410;-80
2023/06/16 04:03:57;;;;;;;;;19.00;16.33;;;;;;;;5070024;28;45313;-78
2023/06/16 04:06:22;;;;;;;;;17.33;15.00;;;;;;;;5070504;28;44761;-79
2023/06/16 04:08:47;;;;;;;;;16.67;16.67;;;;;;;;5071040;28;45298;-78
2023/06/16 04:11:14;;;;;;;;;14.33;14.33;;;;;;;;5072054;28;45123;-78
2023/06/16 04:13:40;;;;;;;;;11.67;11.67;;;;;;;;5054287;28;44760;-78
2023/06/16 04:16:05;;;;;;;;;19.67;16.00;;;;;;;;5071604;28;45845;-77
2023/06/16 04:18:31;;;;;;;;;18.67;16.00;;;;;;;;5052370;28;47256;-79
2023/06/16 04:20:56;;;;;;;;;17.00;14.67;;;;;;;;5077358;28;45747;-77
2023/06/16 04:23:21;;;;;;;;;17.67;17.00;;;;;;;;5047438;28;46635;-78
2023/06/16 04:25:47;;;;;;;;;15.33;13.67;;;;;;;;5051502;28;45746;-78
2023/06/16 04:28:14;;;;;;;;;15.67;15.67;;;;;;;;5051465;28;46720;-80
2023/06/16 04:30:40;;;;;;;;;16.00;16.00;;;;;;;;5051419;28;45957;-80
2023/06/16 04:33:06;;;;;;;;;16.00;16.00;;;;;;;;5052135;28;45581;-78
2023/06/16 04:35:31;;;;;;;;;15.00;13.00;;;;;;;;5035344;28;46812;-76
2023/06/16 04:37:58;;;;;;;;;15.67;15.33;;;;;;;;5049370;28;45425;-77
2023/06/16 04:40:25;;;;;;;;;14.00;13.67;;;;;;;;5033478;28;45726;-77
2023/06/16 04:42:50;;;;;;;;;13.33;13.33;;;;;;;;5053364;28;45576;-78
2023/06/16 04:45:15;;;;;;;;;14.00;14.00;;;;;;;;5052031;28;46218;-78
2023/06/16 04:47:42;;;;;;;;;14.00;10.67;;;;;;;;5051502;28;46696;-77
2023/06/16 04:50:08;;;;;;;;;16.67;16.67;;;;;;;;5042746;28;45679;-77
2023/06/16 04:52:36;;;;;;;;;16.33;12.33;;;;;;;;5042638;28;45513;-79
2023/06/16 04:55:01;;;;;;;;;20.00;18.67;;;;;;;;5051640;28;45918;-77
2023/06/16 04:57:28;;;;;;;;;13.33;13.33;;;;;;;;5050827;28;46053;-78
2023/06/16 04:59:54;;;;;;;;;18.67;17.00;;;;;;;;5066921;28;45715;-79
2023/06/16 05:02:19;;;;;;;;;16.00;16.00;;;;;;;;5053247;28;45525;-77
2023/06/16 05:04:44;;;;;;;;;14.00;12.67;;;;;;;;5046671;28;45856;-78
2023/06/16 05:07:11;;;;;;;;;16.67;14.00;;;;;;;;5050097;28;48093;-78
2023/06/16 05:09:36;;;;;;;;;16.33;13.33;;;;;;;;5052676;28;45838;-77
2023/06/16 05:12:02;;;;;;;;;11.67;11.67;;;;;;;;5058548;28;44793;-78
2023/06/16 05:14:28;;;;;;;;;14.67;14.67;;;;;;;;5056018;28;46043;-78
2023/06/16 05:16:53;;;;;;;;;14.33;12.67;;;;;;;;5053085;28;47219;-77
2023/06/16 05:19:18;;;;;;;;;14.67;12.33;;;;;;;;5036813;28;46226;-77
2023/06/16 05:21:44;;;;;;;;;17.67;17.67;;;;;;;;5058199;28;45555;-78
2023/06/16 05:24:09;;;;;;;;;15.33;15.33;;;;;;;;5053923;28;45751;-79
2023/06/16 05:26:35;;;;;;;;;11.33;11.33;;;;;;;;5038896;28;46874;-81
2023/06/16 05:29:00;;;;;;;;;14.00;14.00;;;;;;;;5042522;28;45616;-78
2023/06/16 05:31:26;;;;;;;;;19.00;16.67;;;;;;;;5035063;28;45586;-78
2023/06/16 05:33:51;;;;;;;;;15.00;13.67;;;;;;;;5043937;28;45427;-77
2023/06/16 05:36:16;;;;;;;;;17.33;16.00;;;;;;;;5050242;28;45434;-77
2023/06/16 05:38:41;;;;;;;;;18.00;16.00;;;;;;;;5052284;28;45941;-77
2023/06/16 05:41:07;;;;;;;;;21.33;18.00;;;;;;;;5045590;28;45760;-78
2023/06/16 05:43:32;;;;;;;;;23.33;21.67;;;;;;;;5042891;28;45679;-75
2023/06/16 05:45:57;;;;;;;;;20.00;19.00;;;;;;;;5034930;28;48378;-76
2023/06/16 05:48:23;;;;;;;;;20.00;19.33;;;;;;;;5048996;28;45730;-76
2023/06/16 05:50:48;;;;;;;;;22.00;20.00;;;;;;;;5050298;28;45348;-75
2023/06/16 05:53:13;;;;;;;;;20.00;17.67;;;;;;;;5051691;28;45812;-77
2023/06/16 05:55:40;;;;;;;;;21.33;19.33;;;;;;;;5052166;28;45927;-78
2023/06/16 05:58:05;;;;;;;;;21.00;21.00;;;;;;;;5050424;28;45556;-79
2023/06/16 06:00:30;;;;;;;;;17.67;16.67;;;;;;;;5051840;28;45543;-76
2023/06/16 06:02:58;;;;;;;;;20.00;18.00;;;;;;;;5033588;28;45926;-79
2023/06/16 06:05:25;;;;;;;;;16.67;15.67;;;;;;;;5050265;28;45846;-80
2023/06/16 06:07:50;;;;;;;;;20.33;17.67;;;;;;;;5048469;28;45573;-80
2023/06/16 06:10:16;;;;;;;;;19.67;15.67;;;;;;;;5048486;28;45937;-79
2023/06/16 06:12:45;;;;;;;;;16.33;13.67;;;;;;;;5051211;28;45634;-82
2023/06/16 06:15:10;;;;;;;;;18.00;17.67;;;;;;;;5035754;28;46388;-76
2023/06/16 06:17:36;;;;;;;;;17.67;17.67;;;;;;;;5055434;28;46146;-77
2023/06/16 06:20:01;;;;;;;;;19.67;15.67;;;;;;;;5049683;28;45620;-76
2023/06/16 06:22:31;;;;;;;;;19.67;17.67;;;;;;;;5050396;28;45726;-78
2023/06/16 06:24:57;;;;;;;;;16.67;13.33;;;;;;;;5049836;28;45343;-76
2023/06/16 06:27:22;;;;;;;;;16.67;15.00;;;;;;;;5050951;28;45586;-75
2023/06/16 06:29:47;;;;;;;;;15.67;13.33;;;;;;;;5047400;28;45553;-76
2023/06/16 06:32:13;;;;;;;;;25.00;23.33;;;;;;;;5049377;28;45780;-75
2023/06/16 06:34:38;;;;;;;;;16.33;14.67;;;;;;;;5053187;28;45486;-76
2023/06/16 06:37:06;;;;;;;;;17.00;15.50;;;;;;;;5047173;28;45435;-79
2023/06/16 06:39:31;;;;;;;;;14.67;11.33;;;;;;;;5048769;28;45452;-75
2023/06/16 06:41:57;;;;;;;;;17.33;14.33;;;;;;;;5038283;28;45466;-83
2023/06/16 06:44:24;;;;;;;;;13.00;10.33;;;;;;;;5052506;28;46484;-79
2023/06/16 06:46:49;;;;;;;;;12.33;12.33;;;;;;;;5025855;28;46003;-75
2023/06/16 06:49:14;;;;;;;;;14.00;13.67;;;;;;;;5049169;28;45938;-77
2023/06/16 06:51:40;;;;;;;;;16.67;14.00;;;;;;;;5049763;28;45943;-75
2023/06/16 06:54:06;;;;;;;;;10.33;10.33;;;;;;;;5049041;28;45863;-77
2023/06/16 06:56:31;;;;;;;;;11.33;11.00;;;;;;;;5042311;28;45769;-77
2023/06/16 06:58:57;;;;;;;;;12.67;10.67;;;;;;;;5050514;28;45397;-79
2023/06/16 07:01:22;;;;;;;;;11.33;11.33;;;;;;;;5050093;28;45428;-77
2023/06/16 07:03:47;;;;;;;;;13.67;10.00;;;;;;;;5049471;28;46245;-76
2023/06/16 07:06:12;;;;;;;;;12.00;11.00;;;;;;;;5049391;28;45910;-76
2023/06/16 07:08:38;;;;;;;;;12.00;12.00;;;;;;;;5041426;28;45734;-75
2023/06/16 07:11:03;;;;;;;;;13.00;10.67;;;;;;;;5031077;28;45954;-78
2023/06/16 07:13:28;;;;;;;;;16.00;13.67;;;;;;;;5045411;28;47531;-75
2023/06/16 07:15:54;;;;;;;;;16.33;14.33;;;;;;;;5049821;28;45525;-76
2023/06/16 07:18:19;;;;;;;;;19.67;15.00;;;;;;;;5049330;28;45711;-76
2023/06/16 07:20:44;;;;;;;;;17.67;15.33;;;;;;;;5050971;28;45419;-76
2023/06/16 07:23:10;;;;;;;;;14.33;13.00;;;;;;;;5049398;28;46243;-76
2023/06/16 07:25:38;;;;;;;;;14.00;13.00;;;;;;;;5036395;28;45858;-76
2023/06/16 07:28:04;;;;;;;;;16.00;14.00;;;;;;;;5039221;28;45484;-75
2023/06/16 07:30:29;;;;;;;;;15.67;14.00;;;;;;;;5049090;28;45814;-76
2023/06/16 07:32:55;;;;;;;;;17.00;13.50;;;;;;;;5049102;28;46106;-76
2023/06/16 07:35:20;;;;;;;;;15.33;12.00;;;;;;;;5049833;28;45737;-74
2023/06/16 07:37:45;;;;;;;;;13.67;13.33;;;;;;;;5037560;28;45909;-78
2023/06/16 07:40:13;;;;;;;;;15.00;13.33;;;;;;;;5049612;28;45813;-76
2023/06/16 07:42:38;;;;;;;;;12.33;12.33;;;;;;;;5049615;28;45814;-77
2023/06/16 07:45:04;;;;;;;;;14.67;12.00;;;;;;;;5049380;28;45500;-75
2023/06/16 07:47:29;;;;;;;;;13.00;11.67;;;;;;;;5047437;28;45641;-76
2023/06/16 07:49:54;;;;;;;;;23.33;23.33;;;;;;;;5049111;28;45690;-76
2023/06/16 07:52:20;;;;;;;;;20.67;15.00;;;;;;;;5050353;28;45414;-76
2023/06/16 07:54:46;;;;;;;;;14.00;12.67;;;;;;;;5048975;28;45347;-77
2023/06/16 07:57:12;;;;;;;;;18.33;15.67;;;;;;;;5048102;28;45509;-76
2023/06/16 07:59:37;;;;;;;;;13.67;12.00;;;;;;;;5043125;28;45965;-76
2023/06/16 08:02:03;;;;;;;;;16.00;13.00;;;;;;;;5042026;28;45563;-76
2023/06/16 08:04:29;;;;;;;;;12.00;9.33;;;;;;;;5049206;28;45892;-76
2023/06/16 08:06:56;;;;;;;;;13.00;13.00;;;;;;;;5049620;28;45588;-76
2023/06/16 08:09:21;;;;;;;;;17.67;14.67;;;;;;;;5030819;28;45818;-77
2023/06/16 08:11:46;;;;;;;;;13.67;13.67;;;;;;;;5049293;28;45627;-76
2023/06/16 08:14:12;;;;;;;;;13.00;13.00;;;;;;;;5049402;28;45436;-75
2023/06/16 08:16:39;;;;;;;;;14.00;12.00;;;;;;;;5034807;28;45851;-75
2023/06/16 08:19:06;;;;;;;;;14.00;14.00;;;;;;;;5041596;28;45407;-76
2023/06/16 08:21:31;;;;;;;;;18.00;14.67;;;;;;;;5034857;28;45732;-76
2023/06/16 08:23:57;;;;;;;;;10.67;10.67;;;;;;;;5047976;28;45704;-79
2023/06/16 08:26:22;;;;;;;;;12.67;11.67;;;;;;;;5048284;28;45458;-76
2023/06/16 08:28:47;;;;;;;;;12.67;10.67;;;;;;;;5048640;28;45908;-75
2023/06/16 08:31:13;;;;;;;;;16.67;12.00;;;;;;;;5051795;28;46618;-78
2023/06/16 08:33:38;;;;;;;;;12.33;11.00;;;;;;;;5032772;28;45734;-76
2023/06/16 08:36:03;;;;;;;;;15.33;13.00;;;;;;;;5048506;28;45744;-74
2023/06/16 08:38:29;;;;;;;;;13.00;12.67;;;;;;;;5042492;28;45561;-76
2023/06/16 08:40:54;;;;;;;;;12.67;12.00;;;;;;;;5048688;28;45557;-75
2023/06/16 08:43:21;;;;;;;;;14.00;11.00;;;;;;;;5043841;28;45504;-75
2023/06/16 08:45:48;;;;;;;;;12.67;12.67;;;;;;;;5051397;28;45951;-75
2023/06/16 08:48:13;;;;;;;;;10.00;9.33;;;;;;;;5051890;28;46060;-76
2023/06/16 08:50:38;;;;;;;;;12.00;11.00;;;;;;;;5037686;28;46831;-76
2023/06/16 08:53:06;;;;;;;;;13.67;13.00;;;;;;;;5044643;28;45544;-75
2023/06/16 08:55:32;;;;;;;;;11.33;11.33;;;;;;;;5052648;28;45608;-75
2023/06/16 08:57:59;;;;;;;;;12.67;12.00;;;;;;;;5047303;28;46412;-74
2023/06/16 09:00:26;;;;;;;;;17.00;17.00;;;;;;;;5040746;28;46126;-76
2023/06/16 09:02:55;;;;;;;;;11.00;10.33;;;;;;;;5033085;28;45436;-75
2023/06/16 09:05:21;;;;;;;;;12.00;10.67;;;;;;;;5051935;28;45791;-76
2023/06/16 09:07:47;;;;;;;;;12.00;10.33;;;;;;;;5036567;28;46073;-77
2023/06/16 09:10:12;;;;;;;;;9.00;9.00;;;;;;;;5051454;28;45879;-78
2023/06/16 09:12:38;;;;;;;;;11.00;11.00;;;;;;;;5054910;28;45803;-80
2023/06/16 09:15:10;;;;;;;;;10.33;9.33;;;;;;;;5045332;28;46576;-76
2023/06/16 09:17:37;;;;;;;;;10.67;10.00;;;;;;;;5051339;28;45827;-75
2023/06/16 09:20:06;;;;;;;;;10.00;9.00;;;;;;;;5052141;28;45960;-75
2023/06/16 09:22:32;;;;;;;;;9.00;9.00;;;;;;;;5041638;28;45459;-76
2023/06/16 09:25:01;;;;;;;;;11.33;9.67;;;;;;;;5052207;28;45767;-75
2023/06/16 09:27:40;;;;;;;;;8.67;7.33;;;;;;;;5044158;28;45656;-75
2023/06/16 09:30:06;;;;;;;;;10.00;10.00;;;;;;;;5038800;28;45684;-76
2023/06/16 09:32:43;;;;;;;;;8.67;8.67;;;;;;;;5044878;28;45947;-75
2023/06/16 09:35:16;;;;;;;;;9.00;9.00;;;;;;;;5050047;28;45778;-75
2023/06/16 09:37:41;;;;;;;;;8.67;8.67;;;;;;;;5049447;28;45652;-75
2023/06/16 09:40:09;;;;;;;;;8.00;8.00;;;;;;;;5036092;28;47297;-75
2023/06/16 09:42:35;;;;;;;;;8.00;8.00;;;;;;;;5051009;28;45586;-76
2023/06/16 09:45:00;;;;;;;;;10.67;10.67;;;;;;;;5044992;28;45685;-76
2023/06/16 09:47:29;;;;;;;;;9.67;9.67;;;;;;;;5045387;28;45812;-76
2023/06/16 09:49:54;;;;;;;;;7.00;6.33;;;;;;;;5049373;28;45698;-75
2023/06/16 09:52:25;;;;;;;;;9.00;9.00;;;;;;;;5051028;28;45383;-76
2023/06/16 09:54:50;;;;;;;;;9.00;8.33;;;;;;;;5044834;28;45678;-77
2023/06/16 09:57:16;;;;;;;;;8.00;8.00;;;;;;;;5050539;28;45594;-79
2023/06/16 09:59:41;;;;;;;;;8.33;7.00;;;;;;;;5045749;28;46552;-77
2023/06/16 10:02:07;;;;;;;;;12.00;8.67;;;;;;;;5049311;28;45537;-76
2023/06/16 10:04:33;;;;;;;;;10.00;8.00;;;;;;;;5043328;28;45784;-77
2023/06/16 10:07:02;;;;;;;;;10.00;8.00;;;;;;;;5048745;28;45513;-76
2023/06/16 10:09:35;;;;;;;;;11.00;9.33;;;;;;;;5037865;28;46101;-81
2023/06/16 10:12:01;;;;;;;;;11.67;9.33;;;;;;;;5027752;28;45539;-79
2023/06/16 10:14:28;;;;;;;;;9.67;9.67;;;;;;;;5039970;28;45536;-78
2023/06/16 10:16:54;;;;;;;;;9.00;8.00;;;;;;;;5045583;28;45758;-76
2023/06/16 10:19:21;;;;;;;;;9.00;9.00;;;;;;;;5048193;27;45806;-76
2023/06/16 10:21:47;;;;;;;;;9.67;9.67;;;;;;;;5046294;28;45793;-76
2023/06/16 10:24:14;;;;;;;;;10.00;10.00;;;;;;;;5036234;28;45834;-75
2023/06/16 10:26:40;;;;;;;;;13.00;11.00;;;;;;;;5051346;28;46042;-76
2023/06/16 10:29:06;;;;;;;;;13.00;11.00;;;;;;;;5048553;27;47102;-77
2023/06/16 10:31:31;;;;;;;;;9.00;8.33;;;;;;;;5054411;28;45799;-76
2023/06/16 10:33:57;;;;;;;;;9.67;9.67;;;;;;;;5033707;28;47190;-76
2023/06/16 10:36:24;;;;;;;;;12.00;10.00;;;;;;;;5036332;28;46217;-77
2023/06/16 10:38:57;;;;;;;;;8.00;8.00;;;;;;;;5039205;28;48144;-76
2023/06/16 10:41:22;;;;;;;;;8.33;8.33;;;;;;;;5035197;28;46065;-75
2023/06/16 10:43:47;;;;;;;;;7.00;7.00;;;;;;;;5053733;28;45661;-77
2023/06/16 10:46:18;;;;;;;;;13.67;10.67;;;;;;;;5047156;28;45648;-76
2023/06/16 10:49:20;;;;;;;;;10.00;10.00;;;;;;;;5054983;27;46259;-75
2023/06/16 10:51:48;;;;;;;;;9.33;9.33;;;;;;;;5018724;28;45912;-76
2023/06/16 10:54:15;;;;;;;;;12.00;10.00;;;;;;;;5055470;28;45584;-74
2023/06/16 10:56:59;;;;;;;;;12.00;11.00;;;;;;;;5058953;28;45889;-75
2023/06/16 10:59:26;;;;;;;;;11.67;9.00;;;;;;;;5049716;28;45709;-75
2023/06/16 11:01:57;;;;;;;;;13.00;12.67;;;;;;;;5053232;28;45454;-75
2023/06/16 11:04:23;;;;;;;;;11.00;11.00;;;;;;;;5032936;28;45849;-75
2023/06/16 11:07:03;;;;;;;;;11.00;10.67;;;;;;;;5048444;28;45918;-74
2023/06/16 11:09:29;;;;;;;;;11.00;10.67;;;;;;;;5046996;28;46788;-74
2023/06/16 11:11:57;;;;;;;;;12.33;12.00;;;;;;;;5045802;28;45817;-72
2023/06/16 11:14:22;;;;;;;;;12.67;11.00;;;;;;;;5042561;28;45562;-75
2023/06/16 11:16:48;;;;;;;;;14.67;11.67;;;;;;;;5041971;28;46036;-75
2023/06/16 11:19:17;;;;;;;;;11.00;11.00;;;;;;;;5045098;28;45737;-77
2023/06/16 11:21:43;;;;;;;;;10.33;10.33;;;;;;;;5032525;28;45442;-75
2023/06/16 11:24:09;;;;;;;;;12.33;11.33;;;;;;;;5048219;28;45700;-80
2023/06/16 11:27:02;;;;;;;;;12.33;12.33;;;;;;;;5044643;28;46005;-80
2023/06/16 11:29:28;;;;;;;;;12.33;12.33;;;;;;;;5025307;28;45552;-76
2023/06/16 11:31:56;;;;;;;;;9.33;9.33;;;;;;;;5046568;28;45722;-76
2023/06/16 11:34:22;;;;;;;;;14.33;13.00;;;;;;;;5048616;28;45961;-80
2023/06/16 11:36:47;;;;;;;;;11.00;11.00;;;;;;;;5030216;28;46024;-79
2023/06/16 11:39:20;;;;;;;;;9.33;9.33;;;;;;;;5048510;28;45790;-79
2023/06/16 11:41:46;;;;;;;;;12.00;10.33;;;;;;;;5032235;28;45539;-78
2023/06/16 11:44:17;;;;;;;;;15.33;13.33;;;;;;;;5048729;28;46084;-79
2023/06/16 11:46:42;;;;;;;;;10.67;10.67;;;;;;;;5048110;28;45761;-80
2023/06/16 11:49:08;;;;;;;;;16.33;12.33;;;;;;;;5047317;28;45773;-79
2023/06/16 11:51:34;;;;;;;;;10.00;9.00;;;;;;;;5027771;28;45827;-81
2023/06/16 11:54:00;;;;;;;;;13.00;11.33;;;;;;;;5048058;28;45633;-78
2023/06/16 11:56:30;;;;;;;;;14.67;13.67;;;;;;;;5048893;28;45716;-82
2023/06/16 11:59:01;;;;;;;;;11.33;11.33;;;;;;;;5049570;28;46963;-81
2023/06/16 12:01:26;;;;;;;;;10.67;10.67;;;;;;;;5033599;28;45490;-81
2023/06/16 12:03:52;;;;;;;;;14.00;12.67;;;;;;;;5033752;28;45533;-77
2023/06/16 12:06:18;;;;;;;;;11.33;11.33;;;;;;;;5048514;28;46024;-75
2023/06/16 12:08:44;;;;;;;;;13.33;12.33;;;;;;;;5046418;28;46385;-77
2023/06/16 12:11:11;;;;;;;;;10.33;10.00;;;;;;;;5048454;28;45943;-77
2023/06/16 12:13:36;;;;;;;;;11.00;10.33;;;;;;;;5028933;28;45566;-77
2023/06/16 12:16:05;;;;;;;;;11.67;10.67;;;;;;;;5047870;28;45785;-77
2023/06/16 12:18:31;;;;;;;;;11.67;11.67;;;;;;;;5031353;28;46002;-77
2023/06/16 12:20:56;;;;;;;;;15.67;13.33;;;;;;;;5056262;28;45074;-78
2023/06/16 12:23:21;;;;;;;;;12.33;12.33;;;;;;;;5048276;28;45467;-77
2023/06/16 12:25:48;;;;;;;;;15.67;13.67;;;;;;;;5051178;28;45480;-75
2023/06/16 12:28:18;;;;;;;;;10.00;10.00;;;;;;;;5050069;28;45497;-76
2023/06/16 12:30:43;;;;;;;;;14.00;11.33;;;;;;;;5046240;28;45746;-76
2023/06/16 12:33:09;;;;;;;;;12.33;12.33;;;;;;;;5049241;28;45859;-76
2023/06/16 12:35:35;;;;;;;;;12.67;12.67;;;;;;;;5042325;28;45711;-75
2023/06/16 12:38:01;;;;;;;;;6.33;5.67;;;;;;;;5046155;28;45951;-77
2023/06/16 12:40:31;;;;;;;;;10.67;10.67;;;;;;;;5029068;28;45860;-77
2023/06/16 12:42:56;;;;;;;;;13.33;11.67;;;;;;;;5029304;28;46168;-77
2023/06/16 12:45:21;;;;;;;;;15.67;13.33;;;;;;;;5031797;28;45684;-77
2023/06/16 12:47:46;;;;;;;;;12.33;12.33;;;;;;;;5027312;28;47158;-80
2023/06/16 12:50:12;;;;;;;;;12.00;10.67;;;;;;;;5028739;28;46093;-78
2023/06/16 12:52:37;;;;;;;;;13.00;13.00;;;;;;;;5046616;28;45889;-76
2023/06/16 12:55:03;;;;;;;;;16.33;15.00;;;;;;;;5029507;28;45550;-78
2023/06/16 12:57:29;;;;;;;;;12.67;11.67;;;;;;;;5047005;28;45964;-76
2023/06/16 12:59:54;;;;;;;;;11.33;11.00;;;;;;;;5039833;28;45603;-76
2023/06/16 13:02:20;;;;;;;;;10.00;9.00;;;;;;;;5046082;28;45497;-77
2023/06/16 13:04:45;;;;;;;;;11.67;10.33;;;;;;;;5032739;28;46924;-75
2023/06/16 13:07:11;;;;;;;;;9.00;9.00;;;;;;;;5044358;28;45608;-77
2023/06/16 13:09:37;;;;;;;;;11.33;11.33;;;;;;;;5047730;28;45398;-76
2023/06/16 13:12:07;;;;;;;;;14.33;13.67;;;;;;;;5028349;28;46180;-77
2023/06/16 13:14:32;;;;;;;;;12.00;10.00;;;;;;;;5047751;28;45858;-77
2023/06/16 13:16:57;;;;;;;;;14.33;13.33;;;;;;;;5030429;28;48169;-76
2023/06/16 13:19:23;;;;;;;;;11.33;10.00;;;;;;;;5031095;28;45486;-76
2023/06/16 13:21:49;;;;;;;;;13.00;13.00;;;;;;;;5048087;28;45897;-77
2023/06/16 13:24:15;;;;;;;;;15.67;14.33;;;;;;;;5047792;28;45514;-76
2023/06/16 13:26:41;;;;;;;;;13.67;12.33;;;;;;;;5052097;28;45530;-78
2023/06/16 13:29:06;;;;;;;;;11.00;11.00;;;;;;;;5051370;28;45412;-76
2023/06/16 13:31:32;;;;;;;;;13.00;11.33;;;;;;;;5032588;28;45663;-76
2023/06/16 13:33:58;;;;;;;;;2.67;2.67;;;;;;;;5033545;28;47402;-77
2023/06/16 13:36:24;;;;;;;;;10.00;10.00;;;;;;;;5031337;28;47191;-77
2023/06/16 13:38:52;;;;;;;;;12.67;11.67;;;;;;;;5050879;28;45724;-75
2023/06/16 13:41:19;;;;;;;;;12.67;11.00;;;;;;;;5051213;28;45509;-77
2023/06/16 13:43:46;;;;;;;;;11.33;10.00;;;;;;;;5051385;28;45834;-77
2023/06/16 13:46:11;;;;;;;;;13.33;12.67;;;;;;;;5051064;28;46226;-77
2023/06/16 13:48:36;;;;;;;;;13.00;12.67;;;;;;;;5051345;28;45598;-76
2023/06/16 13:51:02;;;;;;;;;12.00;11.33;;;;;;;;5050344;28;45774;-76
2023/06/16 13:53:27;;;;;;;;;9.67;9.67;;;;;;;;5033556;28;46173;-75
2023/06/16 13:55:53;;;;;;;;;21.33;19.67;;;;;;;;5028590;28;47208;-77
2023/06/16 13:58:19;;;;;;;;;10.33;9.33;;;;;;;;5030322;28;45408;-76
2023/06/16 14:00:44;;;;;;;;;13.00;12.33;;;;;;;;5029352;28;45905;-77
2023/06/16 14:03:09;;;;;;;;;11.33;11.33;;;;;;;;5030275;28;45641;-76
2023/06/16 14:05:35;;;;;;;;;8.00;8.00;;;;;;;;5032728;28;48705;-79
2023/06/16 14:08:01;;;;;;;;;10.00;10.00;;;;;;;;5032034;28;46337;-78
2023/06/16 14:10:27;;;;;;;;;13.67;12.00;;;;;;;;5031077;28;45521;-80
2023/06/16 14:12:52;;;;;;;;;16.33;13.00;;;;;;;;5031034;28;45766;-78
2023/06/16 14:15:17;;;;;;;;;11.00;11.00;;;;;;;;5029963;28;47552;-77
2023/06/16 14:17:43;;;;;;;;;10.67;10.67;;;;;;;;5031505;28;45844;-78